createdAt,value
2023-10-16T00:01:20.888Z,3.63
2023-10-16T00:03:49.427Z,3.47
2023-10-16T00:06:16.039Z,3.31
2023-10-16T00:08:50.163Z,3.27
2023-10-16T00:11:19.594Z,3.05
2023-10-16T00:13:51.395Z,3.05
2023-10-16T00:16:20.155Z,3.34
2023-10-16T00:18:47.362Z,3.23
2023-10-16T00:21:14.790Z,3.21
2023-10-16T00:23:42.533Z,3.34
2023-10-16T00:26:17.200Z,3.40
2023-10-16T00:28:46.954Z,3.68
2023-10-16T00:31:22.020Z,3.49
2023-10-16T00:33:50.643Z,3.26
2023-10-16T00:36:17.275Z,3.33
2023-10-16T00:38:49.577Z,3.40
2023-10-16T00:41:16.180Z,3.12
2023-10-16T00:43:45.011Z,3.23
2023-10-16T00:46:19.674Z,2.98
2023-10-16T00:48:48.019Z,2.83
2023-10-16T00:51:16.813Z,2.80
2023-10-16T00:53:48.546Z,2.58
2023-10-16T00:56:15.132Z,2.76
2023-10-16T00:58:43.654Z,2.63
2023-10-16T01:01:16.408Z,2.78
2023-10-16T01:03:46.062Z,2.73
2023-10-16T01:06:22.385Z,2.62
2023-10-16T01:08:52.981Z,2.82
2023-10-16T01:11:20.268Z,2.88
2023-10-16T01:13:52.091Z,3.10
2023-10-16T01:16:19.848Z,3.11
2023-10-16T01:18:47.090Z,2.92
2023-10-16T01:21:18.375Z,2.77
2023-10-16T01:23:45.648Z,2.78
2023-10-16T01:26:14.993Z,2.85
2023-10-16T01:28:42.216Z,2.66
2023-10-16T01:31:08.753Z,2.83
2023-10-16T01:33:35.649Z,2.63
2023-10-16T01:36:06.096Z,2.78
2023-10-16T01:38:33.048Z,2.76
2023-10-16T01:41:02.897Z,2.83
2023-10-16T01:43:30.484Z,2.86
2023-10-16T01:46:02.187Z,2.84
2023-10-16T01:48:31.723Z,2.77
2023-10-16T01:50:58.265Z,2.93
2023-10-16T01:53:27.632Z,3.09
2023-10-16T01:55:57.612Z,2.96
2023-10-16T01:58:31.727Z,3.01
2023-10-16T02:00:58.252Z,2.84
2023-10-16T02:03:27.533Z,2.63
2023-10-16T02:05:54.276Z,2.34
2023-10-16T02:08:21.756Z,2.23
2023-10-16T02:10:51.904Z,2.51
2023-10-16T02:13:18.280Z,2.67
2023-10-16T02:15:44.943Z,2.25
2023-10-16T02:18:19.808Z,2.45
2023-10-16T02:20:46.679Z,2.62
2023-10-16T02:23:13.587Z,2.70
2023-10-16T02:25:40.042Z,2.62
2023-10-16T02:28:08.859Z,2.72
2023-10-16T02:30:39.782Z,2.64
2023-10-16T02:33:16.907Z,2.78
2023-10-16T02:35:44.031Z,2.44
2023-10-16T02:38:14.976Z,2.36
2023-10-16T02:40:45.839Z,2.32
2023-10-16T02:43:15.168Z,2.42
2023-10-16T02:45:48.079Z,2.34
2023-10-16T02:48:17.809Z,2.34
2023-10-16T02:50:50.915Z,2.24
2023-10-16T02:53:22.736Z,2.42
2023-10-16T02:55:51.125Z,2.33
2023-10-16T02:58:17.734Z,2.50
2023-10-16T03:00:51.120Z,2.50
2023-10-16T03:03:18.651Z,2.66
2023-10-16T03:05:46.347Z,2.75
2023-10-16T03:08:14.764Z,2.71
2023-10-16T03:10:41.455Z,2.42
2023-10-16T03:13:07.926Z,2.39
2023-10-16T03:15:42.984Z,2.23
2023-10-16T03:18:17.791Z,2.24
2023-10-16T03:20:46.338Z,2.29
2023-10-16T03:23:14.337Z,2.29
2023-10-16T03:25:44.718Z,2.15
2023-10-16T03:28:12.591Z,1.97
2023-10-16T03:30:41.111Z,1.95
2023-10-16T03:33:08.819Z,2.06
2023-10-16T03:35:39.238Z,2.13
2023-10-16T03:38:25.328Z,2.16
2023-10-16T03:40:52.383Z,2.19
2023-10-16T03:43:20.659Z,2.14
2023-10-16T03:45:47.637Z,1.97
2023-10-16T03:48:16.211Z,1.91
2023-10-16T03:50:43.966Z,1.98
2023-10-16T03:53:14.252Z,2.01
2023-10-16T03:55:51.007Z,1.93
2023-10-16T03:58:20.056Z,1.78
2023-10-16T04:00:54.316Z,1.67
2023-10-16T04:03:23.104Z,1.69
2023-10-16T04:05:51.580Z,1.64
2023-10-16T04:08:19.934Z,1.70
2023-10-16T04:10:48.068Z,1.73
2023-10-16T04:13:15.868Z,1.81
2023-10-16T04:15:48.649Z,1.99
2023-10-16T04:18:27.952Z,1.78
2023-10-16T04:21:22.413Z,1.81
2023-10-16T04:23:48.878Z,2.04
2023-10-16T04:26:39.192Z,2.06
2023-10-16T04:29:11.477Z,1.76
2023-10-16T04:31:46.172Z,1.73
2023-10-16T04:34:26.557Z,1.90
2023-10-16T04:37:18.115Z,1.88
2023-10-16T04:39:58.499Z,1.75
2023-10-16T04:42:48.258Z,1.73
2023-10-16T04:45:16.777Z,1.67
2023-10-16T04:47:54.752Z,1.23
2023-10-16T04:53:15.155Z,1.74
2023-10-16T04:55:42.484Z,1.84
2023-10-16T04:58:20.023Z,1.95
2023-10-16T05:00:58.121Z,1.90
2023-10-16T05:03:39.628Z,1.93
2023-10-16T05:06:27.664Z,1.86
2023-10-16T05:09:00.921Z,1.98
2023-10-16T05:11:57.317Z,1.95
2023-10-16T05:14:42.984Z,1.99
2023-10-16T05:17:28.359Z,2.15
2023-10-16T05:19:54.886Z,2.05
2023-10-16T05:22:40.165Z,2.00
2023-10-16T05:25:25.418Z,1.87
2023-10-16T05:28:10.420Z,1.88
2023-10-16T05:30:55.123Z,1.97
2023-10-16T05:33:39.895Z,1.92
2023-10-16T05:36:25.276Z,1.91
2023-10-16T05:39:10.078Z,2.00
2023-10-16T05:41:54.860Z,1.97
2023-10-16T05:44:39.567Z,2.05
2023-10-16T05:47:24.446Z,2.03
2023-10-16T05:50:09.130Z,1.64
2023-10-16T05:52:53.969Z,1.70
2023-10-16T05:55:38.692Z,1.64
2023-10-16T05:58:23.505Z,1.93
2023-10-16T06:01:08.392Z,1.96
2023-10-16T06:03:53.628Z,1.76
2023-10-16T06:06:38.977Z,1.86
2023-10-16T06:09:23.831Z,1.83
2023-10-16T06:12:09.273Z,1.88
2023-10-16T06:14:36.245Z,2.20
2023-10-16T06:17:14.216Z,2.14
2023-10-16T06:19:44.442Z,2.18
2023-10-16T06:22:12.134Z,2.11
2023-10-16T06:24:49.013Z,2.22
2023-10-16T06:27:25.681Z,2.24
2023-10-16T06:29:52.504Z,2.67
2023-10-16T06:32:24.193Z,2.24
2023-10-16T06:35:12.822Z,2.44
2023-10-16T06:37:39.637Z,2.78
2023-10-16T06:40:16.961Z,2.73
2023-10-16T06:42:46.576Z,2.68
2023-10-16T06:45:41.602Z,2.72
2023-10-16T06:48:21.551Z,2.85
2023-10-16T06:51:04.761Z,2.91
2023-10-16T06:53:31.443Z,2.92
2023-10-16T06:55:57.864Z,3.06
2023-10-16T06:58:24.358Z,3.08
2023-10-16T07:00:53.370Z,3.05
2023-10-16T07:03:21.821Z,3.17
2023-10-16T07:05:49.342Z,3.10
2023-10-16T07:08:19.663Z,3.19
2023-10-16T07:10:50.587Z,3.30
2023-10-16T07:13:27.853Z,3.53
2023-10-16T07:16:06.077Z,3.54
2023-10-16T07:18:35.277Z,3.64
2023-10-16T07:21:03.297Z,3.77
2023-10-16T07:23:31.324Z,4.00
2023-10-16T07:25:59.415Z,4.05
2023-10-16T07:28:27.486Z,4.29
2023-10-16T07:30:57.951Z,4.20
2023-10-16T07:33:24.949Z,4.40
2023-10-16T07:35:53.008Z,4.65
2023-10-16T07:38:23.878Z,4.81
2023-10-16T07:40:54.016Z,5.11
2023-10-16T07:43:29.074Z,4.85
2023-10-16T07:46:29.668Z,5.02
2023-10-16T07:48:58.139Z,5.05
2023-10-16T07:51:28.526Z,5.11
2023-10-16T07:53:58.043Z,5.11
2023-10-16T07:56:24.711Z,5.19
2023-10-16T07:59:07.347Z,5.19
2023-10-16T08:01:43.905Z,5.24
2023-10-16T08:04:29.790Z,5.42
2023-10-16T08:07:05.252Z,5.56
2023-10-16T08:09:38.763Z,5.49
2023-10-16T08:12:19.698Z,5.62
2023-10-16T08:14:52.255Z,5.77
2023-10-16T08:17:19.084Z,5.98
2023-10-16T08:19:46.886Z,6.66
2023-10-16T08:22:15.042Z,6.37
2023-10-16T08:24:58.904Z,6.21
2023-10-16T08:27:38.730Z,6.44
2023-10-16T08:30:32.101Z,6.58
2023-10-16T08:33:07.518Z,6.51
2023-10-16T08:35:40.801Z,6.61
2023-10-16T08:38:26.874Z,6.61
2023-10-16T08:41:07.645Z,6.67
2023-10-16T08:43:53.040Z,7.21
2023-10-16T08:46:20.081Z,7.18
2023-10-16T08:48:49.789Z,7.16
2023-10-16T08:51:19.179Z,7.44
2023-10-16T08:53:46.293Z,7.55
2023-10-16T08:56:18.652Z,8.11
2023-10-16T08:58:46.612Z,7.97
2023-10-16T09:01:18.102Z,8.07
2023-10-16T09:04:00.921Z,8.00
2023-10-16T09:06:30.899Z,8.06
2023-10-16T09:08:57.286Z,8.14
2023-10-16T09:11:25.873Z,7.99
2023-10-16T09:13:53.837Z,8.18
2023-10-16T09:16:25.561Z,8.33
2023-10-16T09:18:54.189Z,8.51
2023-10-16T09:21:24.816Z,8.54
2023-10-16T09:23:52.656Z,8.49
2023-10-16T09:26:25.092Z,8.59
2023-10-16T09:28:55.187Z,8.65
2023-10-16T09:31:22.711Z,8.80
2023-10-16T09:33:49.720Z,9.06
2023-10-16T09:36:22.268Z,9.28
2023-10-16T09:38:52.779Z,9.28
2023-10-16T09:41:26.533Z,9.62
2023-10-16T09:43:57.848Z,9.28
2023-10-16T09:46:42.427Z,9.50
2023-10-16T09:49:10.970Z,9.67
2023-10-16T09:51:40.883Z,9.62
2023-10-16T09:54:10.494Z,9.41
2023-10-16T09:56:43.064Z,10.04
2023-10-16T09:59:18.375Z,9.98
2023-10-16T10:01:46.053Z,9.96
2023-10-16T10:04:13.487Z,9.87
2023-10-16T10:06:42.414Z,9.92
2023-10-16T10:09:13.715Z,10.08
2023-10-16T10:11:58.694Z,10.38
2023-10-16T10:14:40.129Z,9.98
2023-10-16T10:17:10.711Z,9.99
2023-10-16T10:19:43.776Z,9.78
2023-10-16T10:22:18.186Z,10.09
2023-10-16T10:24:52.367Z,10.58
2023-10-16T10:27:19.064Z,10.84
2023-10-16T10:29:49.565Z,10.88
2023-10-16T10:32:16.334Z,10.83
2023-10-16T10:34:45.821Z,10.83
2023-10-16T10:37:52.946Z,10.88
2023-10-16T10:40:27.656Z,11.05
2023-10-16T10:42:59.194Z,11.19
2023-10-16T10:45:36.914Z,10.42
2023-10-16T10:48:13.328Z,10.66
2023-10-16T10:50:41.685Z,10.74
2023-10-16T10:53:15.499Z,11.22
2023-10-16T10:55:56.110Z,10.94
2023-10-16T10:58:26.100Z,10.86
2023-10-16T11:01:01.765Z,10.90
2023-10-16T11:03:37.171Z,11.05
2023-10-16T11:06:03.850Z,11.33
2023-10-16T11:08:35.309Z,11.42
2023-10-16T11:11:04.638Z,11.31
2023-10-16T11:13:31.840Z,11.79
2023-10-16T11:16:02.134Z,11.10
2023-10-16T11:18:30.330Z,11.12
2023-10-16T11:21:04.890Z,11.50
2023-10-16T11:23:39.728Z,11.61
2023-10-16T11:26:07.777Z,12.01
2023-10-16T11:28:36.337Z,11.88
2023-10-16T11:31:06.027Z,11.71
2023-10-16T11:33:35.735Z,11.76
2023-10-16T11:36:04.688Z,11.78
2023-10-16T11:38:35.299Z,11.71
2023-10-16T11:41:13.471Z,11.70
2023-10-16T11:43:48.130Z,11.57
2023-10-16T11:46:35.624Z,11.82
2023-10-16T11:49:22.377Z,11.71
2023-10-16T11:51:52.242Z,11.66
2023-10-16T11:54:21.268Z,11.92
2023-10-16T11:56:48.970Z,12.07
2023-10-16T11:59:16.578Z,11.90
2023-10-16T12:02:01.250Z,12.19
2023-10-16T12:04:30.058Z,12.07
2023-10-16T12:06:58.878Z,11.91
2023-10-16T12:09:26.874Z,11.78
2023-10-16T12:11:55.458Z,12.09
2023-10-16T12:14:23.258Z,12.10
2023-10-16T12:16:49.944Z,12.03
2023-10-16T12:19:18.089Z,12.06
2023-10-16T12:21:54.180Z,12.18
2023-10-16T12:24:21.826Z,12.06
2023-10-16T12:26:48.386Z,12.00
2023-10-16T12:29:14.856Z,11.94
2023-10-16T12:31:41.602Z,12.10
2023-10-16T12:34:17.338Z,12.32
2023-10-16T12:36:44.446Z,12.24
2023-10-16T12:39:26.684Z,12.23
2023-10-16T12:41:56.924Z,12.52
2023-10-16T12:44:26.756Z,12.57
2023-10-16T12:46:57.432Z,12.63
2023-10-16T12:49:24.400Z,12.27
2023-10-16T12:51:51.155Z,12.18
2023-10-16T12:54:18.030Z,12.19
2023-10-16T12:56:44.521Z,12.32
2023-10-16T12:59:11.933Z,12.62
2023-10-16T13:01:41.914Z,12.69
2023-10-16T13:04:14.822Z,12.78
2023-10-16T13:06:42.167Z,12.77
2023-10-16T13:09:15.432Z,12.67
2023-10-16T13:11:42.645Z,12.46
2023-10-16T13:14:09.197Z,12.64
2023-10-16T13:16:35.626Z,12.67
2023-10-16T13:19:03.233Z,12.73
2023-10-16T13:21:39.373Z,12.51
2023-10-16T13:24:12.102Z,12.49
2023-10-16T13:26:39.509Z,12.65
2023-10-16T13:29:10.493Z,12.54
2023-10-16T13:31:38.114Z,12.78
2023-10-16T13:34:05.160Z,12.89
2023-10-16T13:36:37.241Z,12.74
2023-10-16T13:39:09.410Z,12.58
2023-10-16T13:41:51.882Z,12.61
2023-10-16T13:44:20.500Z,12.73
2023-10-16T13:46:50.421Z,12.63
2023-10-16T13:49:19.031Z,12.77
2023-10-16T13:51:46.554Z,12.64
2023-10-16T13:54:13.565Z,12.88
2023-10-16T13:56:41.072Z,13.01
2023-10-16T13:59:07.693Z,13.12
2023-10-16T14:01:41.173Z,12.87
2023-10-16T14:04:18.014Z,12.67
2023-10-16T14:06:46.909Z,12.53
2023-10-16T14:09:20.645Z,12.47
2023-10-16T14:11:50.632Z,12.56
2023-10-16T14:14:21.833Z,12.48
2023-10-16T14:16:53.284Z,12.74
2023-10-16T14:19:27.917Z,12.88
2023-10-16T14:21:56.488Z,12.83
2023-10-16T14:24:26.126Z,12.84
2023-10-16T14:26:56.539Z,12.82
2023-10-16T14:29:25.844Z,12.77
2023-10-16T14:31:56.340Z,12.68
2023-10-16T14:34:23.864Z,12.67
2023-10-16T14:36:54.720Z,12.64
2023-10-16T14:39:29.400Z,12.70
2023-10-16T14:42:02.967Z,12.75
2023-10-16T14:44:30.040Z,12.48
2023-10-16T14:46:57.713Z,12.61
2023-10-16T14:49:26.457Z,12.31
2023-10-16T14:51:54.572Z,12.31
2023-10-16T14:54:24.426Z,12.19
2023-10-16T14:56:52.753Z,12.33
2023-10-16T14:59:33.278Z,12.23
2023-10-16T15:02:01.587Z,12.42
2023-10-16T15:04:29.554Z,12.30
2023-10-16T15:07:05.165Z,12.24
2023-10-16T15:09:32.878Z,12.15
2023-10-16T15:12:00.550Z,12.11
2023-10-16T15:14:28.129Z,12.18
2023-10-16T15:16:55.206Z,12.14
2023-10-16T15:19:21.881Z,12.00
2023-10-16T15:21:49.673Z,12.06
2023-10-16T15:24:16.346Z,11.85
2023-10-16T15:26:43.396Z,11.90
2023-10-16T15:29:14.504Z,11.85
2023-10-16T15:31:41.278Z,11.79
2023-10-16T15:34:10.436Z,11.91
2023-10-16T15:36:37.246Z,11.78
2023-10-16T15:39:04.069Z,11.85
2023-10-16T15:41:31.081Z,11.84
2023-10-16T15:44:00.007Z,11.71
2023-10-16T15:46:29.637Z,11.57
2023-10-16T15:48:57.129Z,11.64
2023-10-16T15:51:25.824Z,11.64
2023-10-16T15:53:52.852Z,11.60
2023-10-16T15:56:25.468Z,11.57
2023-10-16T15:58:53.011Z,11.51
2023-10-16T16:01:20.710Z,11.61
2023-10-16T16:03:47.596Z,11.57
2023-10-16T16:06:18.776Z,11.35
2023-10-16T16:08:46.553Z,11.56
2023-10-16T16:11:15.330Z,11.34
2023-10-16T16:13:42.529Z,11.28
2023-10-16T16:16:10.887Z,11.32
2023-10-16T16:18:39.279Z,11.07
2023-10-16T16:21:07.692Z,11.06
2023-10-16T16:23:34.789Z,10.83
2023-10-16T16:26:03.431Z,10.83
2023-10-16T16:28:31.014Z,10.85
2023-10-16T16:30:58.785Z,11.03
2023-10-16T16:33:25.480Z,10.76
2023-10-16T16:35:52.261Z,10.58
2023-10-16T16:38:18.811Z,10.54
2023-10-16T16:40:47.425Z,10.57
2023-10-16T16:43:13.901Z,10.47
2023-10-16T16:45:41.490Z,10.50
2023-10-16T16:48:08.453Z,10.44
2023-10-16T16:50:35.849Z,10.37
2023-10-16T16:53:04.234Z,10.62
2023-10-16T16:55:30.853Z,10.32
2023-10-16T16:57:57.927Z,10.33
2023-10-16T17:00:27.757Z,10.32
2023-10-16T17:02:57.132Z,10.19
2023-10-16T17:05:24.451Z,10.26
2023-10-16T17:07:52.664Z,10.32
2023-10-16T17:10:19.904Z,10.25
2023-10-16T17:12:46.691Z,10.13
2023-10-16T17:15:13.451Z,10.16
2023-10-16T17:17:41.535Z,10.18
2023-10-16T17:20:12.889Z,10.00
2023-10-16T17:23:03.277Z,10.21
2023-10-16T17:25:30.019Z,10.20
2023-10-16T17:27:56.574Z,10.19
2023-10-16T17:30:24.007Z,10.25
2023-10-16T17:32:51.279Z,10.19
2023-10-16T17:35:28.357Z,9.97
2023-10-16T17:37:55.130Z,9.98
2023-10-16T17:40:21.568Z,9.91
2023-10-16T17:42:48.506Z,9.94
2023-10-16T17:45:16.815Z,9.78
2023-10-16T17:47:45.140Z,9.83
2023-10-16T17:50:12.120Z,9.90
2023-10-16T17:52:39.482Z,9.76
2023-10-16T17:55:06.446Z,9.87
2023-10-16T17:57:34.379Z,9.77
2023-10-16T18:00:01.204Z,9.76
2023-10-16T18:02:30.768Z,9.69
2023-10-16T18:04:57.517Z,9.70
2023-10-16T18:07:24.568Z,9.86
2023-10-16T18:09:51.081Z,9.77
2023-10-16T18:12:21.927Z,9.77
2023-10-16T18:14:50.896Z,9.59
2023-10-16T18:17:20.940Z,9.74
2023-10-16T18:19:47.807Z,9.61
2023-10-16T18:22:15.518Z,9.62
2023-10-16T18:24:42.229Z,9.38
2023-10-16T18:27:15.562Z,9.44
2023-10-16T18:29:45.665Z,9.20
2023-10-16T18:32:12.747Z,9.17
2023-10-16T18:34:39.344Z,9.19
2023-10-16T18:37:10.255Z,9.12
2023-10-16T18:39:38.913Z,9.01
2023-10-16T18:42:09.468Z,8.98
2023-10-16T18:44:36.892Z,8.87
2023-10-16T18:47:05.973Z,8.96
2023-10-16T18:49:33.160Z,8.88
2023-10-16T18:51:59.623Z,8.86
2023-10-16T18:54:26.302Z,8.96
2023-10-16T18:56:52.994Z,8.97
2023-10-16T18:59:21.163Z,8.98
2023-10-16T19:01:48.885Z,9.03
2023-10-16T19:04:16.969Z,9.14
2023-10-16T19:06:44.797Z,9.26
2023-10-16T19:09:13.373Z,9.26
2023-10-16T19:11:40.080Z,9.18
2023-10-16T19:14:06.613Z,9.24
2023-10-16T19:16:33.476Z,8.83
2023-10-16T19:19:00.047Z,8.69
2023-10-16T19:21:26.728Z,8.70
2023-10-16T19:23:53.504Z,8.64
2023-10-16T19:26:20.033Z,8.52
2023-10-16T19:28:46.860Z,8.52
2023-10-16T19:31:16.252Z,8.53
2023-10-16T19:33:44.583Z,8.58
2023-10-16T19:36:17.544Z,8.60
2023-10-16T19:38:45.966Z,8.63
2023-10-16T19:41:15.265Z,8.73
2023-10-16T19:43:41.989Z,8.74
2023-10-16T19:46:08.658Z,8.73
2023-10-16T19:48:35.119Z,8.70
2023-10-16T19:51:01.545Z,8.60
2023-10-16T19:53:28.773Z,8.72
2023-10-16T19:55:56.186Z,8.70
2023-10-16T19:58:22.771Z,8.79
2023-10-16T20:00:49.225Z,8.78
2023-10-16T20:03:19.777Z,8.81
2023-10-16T20:05:46.423Z,8.73
2023-10-16T20:08:12.903Z,8.77
2023-10-16T20:10:41.975Z,8.77
2023-10-16T20:13:11.899Z,8.87
2023-10-16T20:15:38.743Z,8.85
2023-10-16T20:18:14.211Z,8.78
2023-10-16T20:20:40.740Z,8.77
2023-10-16T20:23:11.061Z,8.74
2023-10-16T20:25:44.303Z,8.77
2023-10-16T20:28:16.045Z,8.87
2023-10-16T20:30:44.689Z,8.78
2023-10-16T20:33:13.480Z,8.89
2023-10-16T20:35:42.516Z,8.89
2023-10-16T20:38:09.888Z,9.07
2023-10-16T20:40:40.564Z,9.21
2023-10-16T20:43:11.961Z,9.23
2023-10-16T20:45:38.628Z,9.12
2023-10-16T20:48:09.003Z,8.92
2023-10-16T20:50:36.251Z,8.89
2023-10-16T20:53:07.349Z,8.66
2023-10-16T20:55:41.487Z,8.58
2023-10-16T20:58:10.395Z,8.42
2023-10-16T21:00:38.302Z,8.22
2023-10-16T21:03:05.372Z,8.25
2023-10-16T21:05:33.893Z,8.23
2023-10-16T21:08:00.976Z,8.14
2023-10-16T21:10:28.873Z,8.14
2023-10-16T21:12:56.903Z,8.07
2023-10-16T21:15:25.644Z,8.09
2023-10-16T21:17:52.429Z,7.95
2023-10-16T21:20:19.223Z,8.12
2023-10-16T21:22:47.952Z,8.00
2023-10-16T21:25:15.674Z,7.98
2023-10-16T21:27:43.724Z,7.90
2023-10-16T21:30:11.205Z,7.95
2023-10-16T21:32:38.529Z,8.01
2023-10-16T21:35:07.596Z,8.11
2023-10-16T21:37:35.104Z,7.78
2023-10-16T21:40:06.806Z,7.74
2023-10-16T21:42:33.771Z,7.73
2023-10-16T21:45:00.515Z,7.73
2023-10-16T21:47:27.270Z,7.65
2023-10-16T21:49:54.084Z,7.58
2023-10-16T21:52:20.494Z,7.64
2023-10-16T21:54:47.462Z,7.68
2023-10-16T21:57:17.313Z,7.54
2023-10-16T21:59:44.447Z,7.79
2023-10-16T22:02:16.808Z,7.77
2023-10-16T22:04:47.368Z,7.80
2023-10-16T22:07:14.731Z,7.80
2023-10-16T22:09:41.172Z,7.82
2023-10-16T22:12:08.050Z,7.87
2023-10-16T22:14:34.549Z,7.78
2023-10-16T22:17:01.826Z,7.71
2023-10-16T22:19:30.996Z,7.85
2023-10-16T22:21:57.793Z,7.70
2023-10-16T22:24:26.971Z,7.61
2023-10-16T22:26:53.660Z,7.48
2023-10-16T22:29:20.131Z,7.48
2023-10-16T22:31:46.580Z,7.39
2023-10-16T22:34:13.164Z,7.17
2023-10-16T22:36:39.614Z,7.26
2023-10-16T22:39:12.984Z,7.13
2023-10-16T22:41:39.828Z,7.15
2023-10-16T22:44:07.208Z,7.22
2023-10-16T22:46:34.488Z,7.27
2023-10-16T22:49:04.714Z,7.25
2023-10-16T22:51:31.258Z,7.27
2023-10-16T22:53:57.724Z,7.20
2023-10-16T22:56:24.992Z,6.94
2023-10-16T22:58:52.240Z,6.72
2023-10-16T23:01:22.820Z,6.73
2023-10-16T23:03:49.484Z,6.86
2023-10-16T23:06:16.062Z,7.17
2023-10-16T23:08:49.687Z,7.16
2023-10-16T23:11:25.227Z,7.22
2023-10-16T23:13:54.926Z,7.07
2023-10-16T23:16:29.317Z,7.00
2023-10-16T23:18:56.713Z,7.04
2023-10-16T23:21:26.018Z,7.15
2023-10-16T23:23:53.035Z,7.06
2023-10-16T23:26:22.112Z,6.94
2023-10-16T23:28:48.876Z,6.97
2023-10-16T23:31:15.971Z,7.10
2023-10-16T23:33:54.665Z,7.25
2023-10-16T23:36:27.236Z,7.11
2023-10-16T23:38:54.063Z,7.03
2023-10-16T23:41:20.706Z,7.02
2023-10-16T23:43:59.605Z,7.02
2023-10-16T23:46:29.896Z,6.96
2023-10-16T23:49:09.649Z,6.80
2023-10-16T23:51:37.556Z,6.87
2023-10-16T23:54:17.025Z,6.87
2023-10-16T23:56:50.623Z,6.68
2023-10-16T23:59:21.713Z,6.53
